sensor_id;sensor_type;location;lat;lon;timestamp;P1;durP1;ratioP1;P2;durP2;ratioP2
27985;SDS011;15453;53.692;10.168;2023-02-28T00:00:12;12.23;;;5.85;;
27985;SDS011;15453;53.692;10.168;2023-02-28T00:02:39;10.15;;;5.20;;
27985;SDS011;15453;53.692;10.168;2023-02-28T00:05:06;11.27;;;5.35;;
27985;SDS011;15453;53.692;10.168;2023-02-28T00:07:32;10.25;;;5.10;;
27985;SDS011;15453;53.692;10.168;2023-02-28T00:09:58;10.45;;;4.78;;
27985;SDS011;15453;53.692;10.168;2023-02-28T00:12:24;9.43;;;4.97;;
27985;SDS011;15453;53.692;10.168;2023-02-28T00:14:49;11.63;;;4.50;;
27985;SDS011;15453;53.692;10.168;2023-02-28T00:17:15;11.55;;;4.40;;
27985;SDS011;15453;53.692;10.168;2023-02-28T00:19:42;6.97;;;3.78;;
27985;SDS011;15453;53.692;10.168;2023-02-28T00:22:08;7.22;;;3.70;;
27985;SDS011;15453;53.692;10.168;2023-02-28T00:24:33;9.90;;;4.13;;
27985;SDS011;15453;53.692;10.168;2023-02-28T00:26:58;8.23;;;3.58;;
27985;SDS011;15453;53.692;10.168;2023-02-28T00:29:23;6.78;;;3.60;;
27985;SDS011;15453;53.692;10.168;2023-02-28T00:31:49;8.00;;;3.65;;
27985;SDS011;15453;53.692;10.168;2023-02-28T00:34:14;6.82;;;3.65;;
27985;SDS011;15453;53.692;10.168;2023-02-28T00:36:39;8.48;;;3.42;;
27985;SDS011;15453;53.692;10.168;2023-02-28T00:39:05;7.85;;;3.10;;
27985;SDS011;15453;53.692;10.168;2023-02-28T00:41:31;6.90;;;3.35;;
27985;SDS011;15453;53.692;10.168;2023-02-28T00:43:56;9.00;;;4.03;;
27985;SDS011;15453;53.692;10.168;2023-02-28T00:46:21;6.38;;;3.53;;
27985;SDS011;15453;53.692;10.168;2023-02-28T00:48:47;5.78;;;3.25;;
27985;SDS011;15453;53.692;10.168;2023-02-28T00:51:12;6.18;;;3.20;;
27985;SDS011;15453;53.692;10.168;2023-02-28T00:53:37;7.53;;;3.17;;
27985;SDS011;15453;53.692;10.168;2023-02-28T00:56:02;7.07;;;3.03;;
27985;SDS011;15453;53.692;10.168;2023-02-28T00:58:28;7.68;;;3.00;;
27985;SDS011;15453;53.692;10.168;2023-02-28T01:00:53;6.03;;;2.72;;
27985;SDS011;15453;53.692;10.168;2023-02-28T01:03:19;5.47;;;2.80;;
27985;SDS011;15453;53.692;10.168;2023-02-28T01:05:46;7.15;;;3.00;;
27985;SDS011;15453;53.692;10.168;2023-02-28T01:08:13;10.65;;;6.10;;
27985;SDS011;15453;53.692;10.168;2023-02-28T01:10:39;14.25;;;6.55;;
27985;SDS011;15453;53.692;10.168;2023-02-28T01:13:04;10.65;;;5.32;;
27985;SDS011;15453;53.692;10.168;2023-02-28T01:15:30;7.28;;;4.72;;
27985;SDS011;15453;53.692;10.168;2023-02-28T01:17:57;10.60;;;6.18;;
27985;SDS011;15453;53.692;10.168;2023-02-28T01:20:22;10.52;;;5.68;;
27985;SDS011;15453;53.692;10.168;2023-02-28T01:22:47;12.48;;;5.60;;
27985;SDS011;15453;53.692;10.168;2023-02-28T01:25:13;14.23;;;5.93;;
27985;SDS011;15453;53.692;10.168;2023-02-28T01:27:38;11.50;;;6.05;;
27985;SDS011;15453;53.692;10.168;2023-02-28T01:30:04;10.43;;;6.55;;
27985;SDS011;15453;53.692;10.168;2023-02-28T01:32:31;16.05;;;7.13;;
27985;SDS011;15453;53.692;10.168;2023-02-28T01:34:56;11.05;;;6.20;;
27985;SDS011;15453;53.692;10.168;2023-02-28T01:37:21;13.25;;;5.88;;
27985;SDS011;15453;53.692;10.168;2023-02-28T01:39:47;10.73;;;5.25;;
27985;SDS011;15453;53.692;10.168;2023-02-28T01:42:12;8.07;;;4.85;;
27985;SDS011;15453;53.692;10.168;2023-02-28T01:47:25;11.63;;;4.25;;
27985;SDS011;15453;53.692;10.168;2023-02-28T01:49:55;6.47;;;3.63;;
27985;SDS011;15453;53.692;10.168;2023-02-28T01:52:20;7.13;;;4.13;;
27985;SDS011;15453;53.692;10.168;2023-02-28T01:54:48;9.63;;;4.15;;
27985;SDS011;15453;53.692;10.168;2023-02-28T01:57:19;7.53;;;4.18;;
27985;SDS011;15453;53.692;10.168;2023-02-28T01:59:52;6.95;;;4.07;;
27985;SDS011;15453;53.692;10.168;2023-02-28T02:02:24;10.82;;;4.75;;
27985;SDS011;15453;53.692;10.168;2023-02-28T02:04:51;9.30;;;3.70;;
27985;SDS011;15453;53.692;10.168;2023-02-28T02:07:20;9.77;;;4.40;;
27985;SDS011;15453;53.692;10.168;2023-02-28T02:09:46;8.23;;;3.85;;
27985;SDS011;15453;53.692;10.168;2023-02-28T02:12:25;8.82;;;4.15;;
27985;SDS011;15453;53.692;10.168;2023-02-28T02:15:05;6.90;;;3.58;;
27985;SDS011;15453;53.692;10.168;2023-02-28T02:17:39;6.75;;;3.70;;
27985;SDS011;15453;53.692;10.168;2023-02-28T02:25:52;5.30;;;3.10;;
27985;SDS011;15453;53.692;10.168;2023-02-28T02:31:27;7.97;;;3.30;;
27985;SDS011;15453;53.692;10.168;2023-02-28T02:34:13;5.00;;;2.67;;
27985;SDS011;15453;53.692;10.168;2023-02-28T02:36:55;5.93;;;1.92;;
27985;SDS011;15453;53.692;10.168;2023-02-28T02:39:40;4.57;;;1.67;;
27985;SDS011;15453;53.692;10.168;2023-02-28T02:42:18;4.13;;;1.77;;
27985;SDS011;15453;53.692;10.168;2023-02-28T02:44:51;5.13;;;1.85;;
27985;SDS011;15453;53.692;10.168;2023-02-28T02:47:23;5.50;;;2.22;;
27985;SDS011;15453;53.692;10.168;2023-02-28T02:49:52;3.28;;;1.42;;
27985;SDS011;15453;53.692;10.168;2023-02-28T02:52:20;4.00;;;1.80;;
27985;SDS011;15453;53.692;10.168;2023-02-28T02:54:50;5.82;;;1.90;;
27985;SDS011;15453;53.692;10.168;2023-02-28T02:57:26;5.70;;;1.90;;
27985;SDS011;15453;53.692;10.168;2023-02-28T02:59:56;4.90;;;2.00;;
27985;SDS011;15453;53.692;10.168;2023-02-28T03:02:24;7.70;;;2.50;;
27985;SDS011;15453;53.692;10.168;2023-02-28T03:04:52;4.78;;;2.45;;
27985;SDS011;15453;53.692;10.168;2023-02-28T03:07:25;6.68;;;2.70;;
27985;SDS011;15453;53.692;10.168;2023-02-28T03:09:51;5.15;;;2.20;;
27985;SDS011;15453;53.692;10.168;2023-02-28T03:12:18;3.67;;;2.33;;
27985;SDS011;15453;53.692;10.168;2023-02-28T03:14:53;4.10;;;2.42;;
27985;SDS011;15453;53.692;10.168;2023-02-28T03:22:51;5.20;;;2.13;;
27985;SDS011;15453;53.692;10.168;2023-02-28T03:25:21;5.43;;;2.60;;
27985;SDS011;15453;53.692;10.168;2023-02-28T03:30:42;9.52;;;2.33;;
27985;SDS011;15453;53.692;10.168;2023-02-28T03:33:23;5.80;;;2.30;;
27985;SDS011;15453;53.692;10.168;2023-02-28T03:35:57;6.07;;;2.58;;
27985;SDS011;15453;53.692;10.168;2023-02-28T03:38:33;5.07;;;2.35;;
27985;SDS011;15453;53.692;10.168;2023-02-28T03:41:09;4.70;;;2.33;;
27985;SDS011;15453;53.692;10.168;2023-02-28T03:43:40;5.93;;;2.10;;
27985;SDS011;15453;53.692;10.168;2023-02-28T03:46:10;4.50;;;2.10;;
27985;SDS011;15453;53.692;10.168;2023-02-28T03:48:47;4.55;;;2.25;;
27985;SDS011;15453;53.692;10.168;2023-02-28T03:51:17;5.43;;;2.15;;
27985;SDS011;15453;53.692;10.168;2023-02-28T03:54:05;5.68;;;2.47;;
27985;SDS011;15453;53.692;10.168;2023-02-28T03:56:37;6.10;;;2.70;;
27985;SDS011;15453;53.692;10.168;2023-02-28T03:59:07;6.15;;;2.40;;
27985;SDS011;15453;53.692;10.168;2023-02-28T04:01:42;5.25;;;2.42;;
27985;SDS011;15453;53.692;10.168;2023-02-28T04:04:10;6.72;;;2.80;;
27985;SDS011;15453;53.692;10.168;2023-02-28T04:06:36;6.00;;;3.08;;
27985;SDS011;15453;53.692;10.168;2023-02-28T04:09:02;8.27;;;2.60;;
27985;SDS011;15453;53.692;10.168;2023-02-28T04:11:33;6.63;;;2.53;;
27985;SDS011;15453;53.692;10.168;2023-02-28T04:14:00;5.38;;;2.00;;
27985;SDS011;15453;53.692;10.168;2023-02-28T04:16:27;4.97;;;2.25;;
27985;SDS011;15453;53.692;10.168;2023-02-28T04:18:53;7.97;;;2.65;;
27985;SDS011;15453;53.692;10.168;2023-02-28T04:21:18;4.90;;;2.00;;
27985;SDS011;15453;53.692;10.168;2023-02-28T04:23:47;7.20;;;2.42;;
27985;SDS011;15453;53.692;10.168;2023-02-28T04:26:12;7.72;;;2.35;;
27985;SDS011;15453;53.692;10.168;2023-02-28T04:28:37;5.15;;;2.58;;
27985;SDS011;15453;53.692;10.168;2023-02-28T04:31:04;9.75;;;2.55;;
27985;SDS011;15453;53.692;10.168;2023-02-28T04:33:30;6.53;;;2.72;;
27985;SDS011;15453;53.692;10.168;2023-02-28T04:36:04;7.28;;;2.75;;
27985;SDS011;15453;53.692;10.168;2023-02-28T04:38:35;5.40;;;2.65;;
27985;SDS011;15453;53.692;10.168;2023-02-28T04:41:02;8.43;;;2.90;;
27985;SDS011;15453;53.692;10.168;2023-02-28T04:43:27;4.60;;;2.13;;
27985;SDS011;15453;53.692;10.168;2023-02-28T04:45:54;7.25;;;2.53;;
27985;SDS011;15453;53.692;10.168;2023-02-28T04:48:22;7.82;;;3.22;;
27985;SDS011;15453;53.692;10.168;2023-02-28T04:50:48;8.10;;;4.07;;
27985;SDS011;15453;53.692;10.168;2023-02-28T04:53:14;9.15;;;4.50;;
27985;SDS011;15453;53.692;10.168;2023-02-28T04:55:39;7.72;;;3.78;;
27985;SDS011;15453;53.692;10.168;2023-02-28T04:58:05;6.65;;;2.70;;
27985;SDS011;15453;53.692;10.168;2023-02-28T05:00:30;5.38;;;2.75;;
27985;SDS011;15453;53.692;10.168;2023-02-28T05:02:56;5.85;;;2.35;;
27985;SDS011;15453;53.692;10.168;2023-02-28T05:05:21;5.90;;;2.25;;
27985;SDS011;15453;53.692;10.168;2023-02-28T05:07:46;4.30;;;2.53;;
27985;SDS011;15453;53.692;10.168;2023-02-28T05:10:11;9.32;;;2.75;;
27985;SDS011;15453;53.692;10.168;2023-02-28T05:12:37;8.20;;;3.20;;
27985;SDS011;15453;53.692;10.168;2023-02-28T05:15:03;3.95;;;2.55;;
27985;SDS011;15453;53.692;10.168;2023-02-28T05:17:29;5.65;;;3.15;;
27985;SDS011;15453;53.692;10.168;2023-02-28T05:19:55;7.15;;;3.40;;
27985;SDS011;15453;53.692;10.168;2023-02-28T05:22:20;6.28;;;3.03;;
27985;SDS011;15453;53.692;10.168;2023-02-28T05:24:45;4.32;;;2.30;;
27985;SDS011;15453;53.692;10.168;2023-02-28T05:27:11;4.15;;;2.20;;
27985;SDS011;15453;53.692;10.168;2023-02-28T05:29:36;5.40;;;2.45;;
27985;SDS011;15453;53.692;10.168;2023-02-28T05:32:07;6.75;;;2.50;;
27985;SDS011;15453;53.692;10.168;2023-02-28T05:34:36;5.35;;;2.42;;
27985;SDS011;15453;53.692;10.168;2023-02-28T05:37:05;5.13;;;2.10;;
27985;SDS011;15453;53.692;10.168;2023-02-28T05:39:31;4.75;;;2.10;;
27985;SDS011;15453;53.692;10.168;2023-02-28T05:41:57;5.35;;;2.08;;
27985;SDS011;15453;53.692;10.168;2023-02-28T05:44:22;3.47;;;1.95;;
27985;SDS011;15453;53.692;10.168;2023-02-28T05:46:48;3.83;;;2.38;;
27985;SDS011;15453;53.692;10.168;2023-02-28T05:49:13;5.72;;;2.60;;
27985;SDS011;15453;53.692;10.168;2023-02-28T05:51:38;6.20;;;3.20;;
27985;SDS011;15453;53.692;10.168;2023-02-28T05:54:04;7.43;;;3.05;;
27985;SDS011;15453;53.692;10.168;2023-02-28T05:56:30;7.65;;;2.88;;
27985;SDS011;15453;53.692;10.168;2023-02-28T05:58:56;6.18;;;2.58;;
27985;SDS011;15453;53.692;10.168;2023-02-28T06:01:43;8.27;;;2.95;;
27985;SDS011;15453;53.692;10.168;2023-02-28T06:04:13;6.53;;;3.28;;
27985;SDS011;15453;53.692;10.168;2023-02-28T06:09:08;11.68;;;5.88;;
27985;SDS011;15453;53.692;10.168;2023-02-28T06:11:33;15.50;;;7.68;;
27985;SDS011;15453;53.692;10.168;2023-02-28T06:13:59;16.67;;;8.38;;
27985;SDS011;15453;53.692;10.168;2023-02-28T06:16:26;20.23;;;9.15;;
27985;SDS011;15453;53.692;10.168;2023-02-28T06:18:52;17.02;;;7.85;;
27985;SDS011;15453;53.692;10.168;2023-02-28T06:21:20;8.25;;;4.68;;
27985;SDS011;15453;53.692;10.168;2023-02-28T06:23:45;8.82;;;4.20;;
27985;SDS011;15453;53.692;10.168;2023-02-28T06:26:11;5.85;;;3.55;;
27985;SDS011;15453;53.692;10.168;2023-02-28T06:28:36;6.55;;;3.50;;
27985;SDS011;15453;53.692;10.168;2023-02-28T06:31:11;6.85;;;3.25;;
27985;SDS011;15453;53.692;10.168;2023-02-28T06:33:38;8.65;;;3.72;;
27985;SDS011;15453;53.692;10.168;2023-02-28T06:36:05;6.70;;;3.30;;
27985;SDS011;15453;53.692;10.168;2023-02-28T06:38:31;8.45;;;3.60;;
27985;SDS011;15453;53.692;10.168;2023-02-28T06:40:57;9.20;;;4.00;;
27985;SDS011;15453;53.692;10.168;2023-02-28T06:43:24;8.38;;;3.38;;
27985;SDS011;15453;53.692;10.168;2023-02-28T06:45:50;6.30;;;3.20;;
27985;SDS011;15453;53.692;10.168;2023-02-28T06:48:15;9.52;;;3.47;;
27985;SDS011;15453;53.692;10.168;2023-02-28T06:50:41;7.35;;;3.33;;
27985;SDS011;15453;53.692;10.168;2023-02-28T06:53:06;6.97;;;2.95;;
27985;SDS011;15453;53.692;10.168;2023-02-28T06:55:31;12.55;;;3.97;;
27985;SDS011;15453;53.692;10.168;2023-02-28T06:57:57;7.43;;;3.75;;
27985;SDS011;15453;53.692;10.168;2023-02-28T07:00:24;8.35;;;3.63;;
27985;SDS011;15453;53.692;10.168;2023-02-28T07:02:49;9.25;;;4.05;;
27985;SDS011;15453;53.692;10.168;2023-02-28T07:05:15;8.98;;;4.28;;
27985;SDS011;15453;53.692;10.168;2023-02-28T07:07:40;7.85;;;3.42;;
27985;SDS011;15453;53.692;10.168;2023-02-28T07:10:09;8.38;;;3.60;;
27985;SDS011;15453;53.692;10.168;2023-02-28T07:15:04;6.05;;;3.35;;
27985;SDS011;15453;53.692;10.168;2023-02-28T07:17:30;6.47;;;3.33;;
27985;SDS011;15453;53.692;10.168;2023-02-28T07:19:55;7.35;;;3.63;;
27985;SDS011;15453;53.692;10.168;2023-02-28T07:22:21;7.93;;;3.22;;
27985;SDS011;15453;53.692;10.168;2023-02-28T07:24:46;7.30;;;3.45;;
27985;SDS011;15453;53.692;10.168;2023-02-28T07:27:11;7.80;;;3.55;;
27985;SDS011;15453;53.692;10.168;2023-02-28T07:29:36;10.27;;;4.53;;
27985;SDS011;15453;53.692;10.168;2023-02-28T07:32:03;12.18;;;5.22;;
27985;SDS011;15453;53.692;10.168;2023-02-28T07:34:28;8.45;;;4.70;;
27985;SDS011;15453;53.692;10.168;2023-02-28T07:36:54;10.15;;;5.07;;
27985;SDS011;15453;53.692;10.168;2023-02-28T07:39:19;11.73;;;4.40;;
27985;SDS011;15453;53.692;10.168;2023-02-28T07:41:45;8.80;;;4.20;;
27985;SDS011;15453;53.692;10.168;2023-02-28T07:44:11;9.57;;;4.72;;
27985;SDS011;15453;53.692;10.168;2023-02-28T07:46:36;8.02;;;3.75;;
27985;SDS011;15453;53.692;10.168;2023-02-28T07:49:02;7.20;;;3.80;;
27985;SDS011;15453;53.692;10.168;2023-02-28T07:51:28;7.88;;;3.20;;
27985;SDS011;15453;53.692;10.168;2023-02-28T07:53:54;8.68;;;3.72;;
27985;SDS011;15453;53.692;10.168;2023-02-28T07:56:19;6.90;;;3.42;;
27985;SDS011;15453;53.692;10.168;2023-02-28T07:58:44;6.93;;;3.50;;
27985;SDS011;15453;53.692;10.168;2023-02-28T08:01:10;7.28;;;3.22;;
27985;SDS011;15453;53.692;10.168;2023-02-28T08:03:36;9.13;;;3.50;;
27985;SDS011;15453;53.692;10.168;2023-02-28T08:06:03;6.55;;;3.55;;
27985;SDS011;15453;53.692;10.168;2023-02-28T08:08:29;7.00;;;3.58;;
27985;SDS011;15453;53.692;10.168;2023-02-28T08:10:57;5.82;;;3.15;;
27985;SDS011;15453;53.692;10.168;2023-02-28T08:13:23;9.43;;;3.70;;
27985;SDS011;15453;53.692;10.168;2023-02-28T08:15:49;9.63;;;3.67;;
27985;SDS011;15453;53.692;10.168;2023-02-28T08:18:14;9.32;;;4.07;;
27985;SDS011;15453;53.692;10.168;2023-02-28T08:20:39;8.90;;;4.15;;
27985;SDS011;15453;53.692;10.168;2023-02-28T08:23:04;10.30;;;4.05;;
27985;SDS011;15453;53.692;10.168;2023-02-28T08:25:29;7.97;;;3.67;;
27985;SDS011;15453;53.692;10.168;2023-02-28T08:27:55;8.20;;;3.55;;
27985;SDS011;15453;53.692;10.168;2023-02-28T08:30:20;6.95;;;4.28;;
27985;SDS011;15453;53.692;10.168;2023-02-28T08:32:45;6.20;;;3.60;;
27985;SDS011;15453;53.692;10.168;2023-02-28T08:35:10;8.35;;;3.83;;
27985;SDS011;15453;53.692;10.168;2023-02-28T08:37:36;6.85;;;3.35;;
27985;SDS011;15453;53.692;10.168;2023-02-28T08:40:01;8.80;;;3.75;;
27985;SDS011;15453;53.692;10.168;2023-02-28T08:42:27;8.90;;;3.95;;
27985;SDS011;15453;53.692;10.168;2023-02-28T08:44:52;5.30;;;3.22;;
27985;SDS011;15453;53.692;10.168;2023-02-28T08:47:17;8.20;;;3.47;;
27985;SDS011;15453;53.692;10.168;2023-02-28T08:49:43;6.38;;;3.38;;
27985;SDS011;15453;53.692;10.168;2023-02-28T08:52:08;6.53;;;3.28;;
27985;SDS011;15453;53.692;10.168;2023-02-28T08:54:33;7.80;;;4.22;;
27985;SDS011;15453;53.692;10.168;2023-02-28T08:57:00;21.48;;;10.60;;
27985;SDS011;15453;53.692;10.168;2023-02-28T08:59:25;11.10;;;5.72;;
27985;SDS011;15453;53.692;10.168;2023-02-28T09:01:50;10.30;;;4.15;;
27985;SDS011;15453;53.692;10.168;2023-02-28T09:04:16;8.32;;;4.45;;
27985;SDS011;15453;53.692;10.168;2023-02-28T09:06:41;6.97;;;3.45;;
27985;SDS011;15453;53.692;10.168;2023-02-28T09:09:06;5.30;;;3.13;;
27985;SDS011;15453;53.692;10.168;2023-02-28T09:11:32;6.45;;;3.28;;
27985;SDS011;15453;53.692;10.168;2023-02-28T09:14:00;6.20;;;2.97;;
27985;SDS011;15453;53.692;10.168;2023-02-28T09:16:26;5.13;;;2.63;;
27985;SDS011;15453;53.692;10.168;2023-02-28T09:18:51;5.63;;;2.72;;
27985;SDS011;15453;53.692;10.168;2023-02-28T09:21:17;6.32;;;2.90;;
27985;SDS011;15453;53.692;10.168;2023-02-28T09:23:44;5.70;;;3.05;;
27985;SDS011;15453;53.692;10.168;2023-02-28T09:26:14;5.72;;;2.88;;
27985;SDS011;15453;53.692;10.168;2023-02-28T09:28:40;6.13;;;2.90;;
27985;SDS011;15453;53.692;10.168;2023-02-28T09:31:05;5.93;;;2.40;;
27985;SDS011;15453;53.692;10.168;2023-02-28T09:33:30;4.35;;;2.22;;
27985;SDS011;15453;53.692;10.168;2023-02-28T09:36:00;7.53;;;2.75;;
27985;SDS011;15453;53.692;10.168;2023-02-28T09:38:26;5.93;;;2.92;;
27985;SDS011;15453;53.692;10.168;2023-02-28T09:40:53;5.00;;;2.25;;
27985;SDS011;15453;53.692;10.168;2023-02-28T09:43:25;5.47;;;2.65;;
27985;SDS011;15453;53.692;10.168;2023-02-28T09:45:54;6.32;;;2.45;;
27985;SDS011;15453;53.692;10.168;2023-02-28T09:48:27;4.80;;;2.65;;
27985;SDS011;15453;53.692;10.168;2023-02-28T09:53:53;7.55;;;2.85;;
27985;SDS011;15453;53.692;10.168;2023-02-28T09:56:20;7.20;;;2.85;;
27985;SDS011;15453;53.692;10.168;2023-02-28T09:59:02;6.30;;;2.60;;
27985;SDS011;15453;53.692;10.168;2023-02-28T10:09:59;6.57;;;3.05;;
27985;SDS011;15453;53.692;10.168;2023-02-28T10:12:27;4.50;;;2.42;;
27985;SDS011;15453;53.692;10.168;2023-02-28T10:14:55;7.22;;;2.88;;
27985;SDS011;15453;53.692;10.168;2023-02-28T10:17:24;5.13;;;2.78;;
27985;SDS011;15453;53.692;10.168;2023-02-28T10:20:02;6.03;;;2.58;;
27985;SDS011;15453;53.692;10.168;2023-02-28T10:25:22;4.93;;;2.65;;
27985;SDS011;15453;53.692;10.168;2023-02-28T10:27:49;5.22;;;2.30;;
27985;SDS011;15453;53.692;10.168;2023-02-28T10:30:18;4.07;;;2.20;;
27985;SDS011;15453;53.692;10.168;2023-02-28T10:32:47;4.47;;;2.13;;
27985;SDS011;15453;53.692;10.168;2023-02-28T10:35:16;5.50;;;2.10;;
27985;SDS011;15453;53.692;10.168;2023-02-28T10:37:43;4.35;;;2.15;;
27985;SDS011;15453;53.692;10.168;2023-02-28T10:42:54;3.42;;;1.95;;
27985;SDS011;15453;53.692;10.168;2023-02-28T10:45:21;5.57;;;2.63;;
27985;SDS011;15453;53.692;10.168;2023-02-28T10:47:52;4.25;;;2.30;;
27985;SDS011;15453;53.692;10.168;2023-02-28T10:52:53;4.45;;;2.35;;
27985;SDS011;15453;53.692;10.168;2023-02-28T10:57:48;4.50;;;2.30;;
27985;SDS011;15453;53.692;10.168;2023-02-28T11:00:16;4.32;;;2.15;;
27985;SDS011;15453;53.692;10.168;2023-02-28T11:02:44;4.18;;;2.00;;
27985;SDS011;15453;53.692;10.168;2023-02-28T11:05:44;3.80;;;2.10;;
27985;SDS011;15453;53.692;10.168;2023-02-28T11:08:12;6.70;;;2.00;;
27985;SDS011;15453;53.692;10.168;2023-02-28T11:10:43;5.25;;;1.95;;
27985;SDS011;15453;53.692;10.168;2023-02-28T11:13:16;3.63;;;1.92;;
27985;SDS011;15453;53.692;10.168;2023-02-28T11:15:45;4.93;;;1.85;;
27985;SDS011;15453;53.692;10.168;2023-02-28T11:18:24;5.95;;;2.22;;
27985;SDS011;15453;53.692;10.168;2023-02-28T11:20:54;2.97;;;1.52;;
27985;SDS011;15453;53.692;10.168;2023-02-28T11:23:21;3.95;;;1.55;;
27985;SDS011;15453;53.692;10.168;2023-02-28T11:25:52;4.18;;;1.73;;
27985;SDS011;15453;53.692;10.168;2023-02-28T11:28:32;2.97;;;1.40;;
27985;SDS011;15453;53.692;10.168;2023-02-28T11:33:40;3.30;;;1.55;;
27985;SDS011;15453;53.692;10.168;2023-02-28T11:38:37;4.03;;;1.80;;
27985;SDS011;15453;53.692;10.168;2023-02-28T11:41:05;3.35;;;1.65;;
27985;SDS011;15453;53.692;10.168;2023-02-28T11:49:21;3.95;;;2.13;;
27985;SDS011;15453;53.692;10.168;2023-02-28T11:52:00;2.88;;;1.40;;
27985;SDS011;15453;53.692;10.168;2023-02-28T11:54:50;3.75;;;1.60;;
27985;SDS011;15453;53.692;10.168;2023-02-28T12:03:04;2.28;;;1.23;;
27985;SDS011;15453;53.692;10.168;2023-02-28T12:13:55;3.42;;;1.70;;
27985;SDS011;15453;53.692;10.168;2023-02-28T12:16:40;3.33;;;1.42;;
27985;SDS011;15453;53.692;10.168;2023-02-28T12:27:32;3.33;;;1.40;;
27985;SDS011;15453;53.692;10.168;2023-02-28T12:30:02;3.17;;;1.50;;
27985;SDS011;15453;53.692;10.168;2023-02-28T12:32:35;3.22;;;1.65;;
27985;SDS011;15453;53.692;10.168;2023-02-28T12:37:38;2.03;;;1.33;;
27985;SDS011;15453;53.692;10.168;2023-02-28T12:40:16;2.72;;;1.35;;
27985;SDS011;15453;53.692;10.168;2023-02-28T12:43:07;4.40;;;1.70;;
27985;SDS011;15453;53.692;10.168;2023-02-28T12:45:39;1.95;;;1.20;;
27985;SDS011;15453;53.692;10.168;2023-02-28T12:48:10;2.78;;;1.23;;
27985;SDS011;15453;53.692;10.168;2023-02-28T12:50:40;2.83;;;1.52;;
27985;SDS011;15453;53.692;10.168;2023-02-28T12:53:07;3.03;;;1.27;;
27985;SDS011;15453;53.692;10.168;2023-02-28T12:55:53;3.17;;;1.33;;
27985;SDS011;15453;53.692;10.168;2023-02-28T13:09:13;4.85;;;1.85;;
27985;SDS011;15453;53.692;10.168;2023-02-28T13:11:42;2.67;;;1.70;;
27985;SDS011;15453;53.692;10.168;2023-02-28T13:14:22;2.95;;;1.60;;
27985;SDS011;15453;53.692;10.168;2023-02-28T13:19:32;5.45;;;2.45;;
27985;SDS011;15453;53.692;10.168;2023-02-28T13:21:59;7.68;;;2.20;;
27985;SDS011;15453;53.692;10.168;2023-02-28T13:24:42;4.07;;;1.92;;
27985;SDS011;15453;53.692;10.168;2023-02-28T13:27:11;4.00;;;1.67;;
27985;SDS011;15453;53.692;10.168;2023-02-28T13:29:38;3.20;;;1.75;;
27985;SDS011;15453;53.692;10.168;2023-02-28T13:35:34;2.92;;;1.60;;
27985;SDS011;15453;53.692;10.168;2023-02-28T13:39:48;7.75;;;2.25;;
27985;SDS011;15453;53.692;10.168;2023-02-28T13:47:33;6.72;;;2.75;;
27985;SDS011;15453;53.692;10.168;2023-02-28T13:58:59;3.40;;;1.90;;
27985;SDS011;15453;53.692;10.168;2023-02-28T14:01:45;3.67;;;2.22;;
27985;SDS011;15453;53.692;10.168;2023-02-28T14:06:55;4.22;;;2.58;;
27985;SDS011;15453;53.692;10.168;2023-02-28T14:09:27;4.95;;;2.75;;
27985;SDS011;15453;53.692;10.168;2023-02-28T14:11:56;3.50;;;2.47;;
27985;SDS011;15453;53.692;10.168;2023-02-28T14:16:59;5.32;;;2.75;;
27985;SDS011;15453;53.692;10.168;2023-02-28T14:19:25;8.02;;;3.00;;
27985;SDS011;15453;53.692;10.168;2023-02-28T14:38:13;5.20;;;3.15;;
27985;SDS011;15453;53.692;10.168;2023-02-28T14:40:42;6.10;;;3.88;;
27985;SDS011;15453;53.692;10.168;2023-02-28T14:43:19;5.28;;;3.20;;
27985;SDS011;15453;53.692;10.168;2023-02-28T14:45:49;6.80;;;3.28;;
27985;SDS011;15453;53.692;10.168;2023-02-28T14:48:16;8.60;;;3.88;;
27985;SDS011;15453;53.692;10.168;2023-02-28T14:50:48;6.97;;;3.95;;
27985;SDS011;15453;53.692;10.168;2023-02-28T14:53:17;8.93;;;4.50;;
27985;SDS011;15453;53.692;10.168;2023-02-28T14:55:45;7.50;;;4.70;;
27985;SDS011;15453;53.692;10.168;2023-02-28T14:58:22;8.57;;;4.78;;
27985;SDS011;15453;53.692;10.168;2023-02-28T15:00:48;9.48;;;5.00;;
27985;SDS011;15453;53.692;10.168;2023-02-28T15:03:34;7.20;;;4.60;;
27985;SDS011;15453;53.692;10.168;2023-02-28T15:06:02;5.97;;;3.75;;
27985;SDS011;15453;53.692;10.168;2023-02-28T15:08:38;6.85;;;3.42;;
27985;SDS011;15453;53.692;10.168;2023-02-28T15:11:07;6.30;;;2.88;;
27985;SDS011;15453;53.692;10.168;2023-02-28T15:16:12;6.72;;;2.90;;
27985;SDS011;15453;53.692;10.168;2023-02-28T15:18:43;4.65;;;2.85;;
27985;SDS011;15453;53.692;10.168;2023-02-28T15:21:22;6.28;;;2.72;;
27985;SDS011;15453;53.692;10.168;2023-02-28T15:23:53;4.82;;;2.60;;
27985;SDS011;15453;53.692;10.168;2023-02-28T15:26:24;4.15;;;2.58;;
27985;SDS011;15453;53.692;10.168;2023-02-28T15:28:58;7.18;;;3.13;;
27985;SDS011;15453;53.692;10.168;2023-02-28T15:31:28;5.10;;;2.75;;
27985;SDS011;15453;53.692;10.168;2023-02-28T15:33:57;4.63;;;2.50;;
27985;SDS011;15453;53.692;10.168;2023-02-28T15:36:28;4.90;;;2.47;;
27985;SDS011;15453;53.692;10.168;2023-02-28T15:38:56;3.95;;;2.60;;
27985;SDS011;15453;53.692;10.168;2023-02-28T15:41:24;4.13;;;3.15;;
27985;SDS011;15453;53.692;10.168;2023-02-28T15:46:40;5.15;;;2.70;;
27985;SDS011;15453;53.692;10.168;2023-02-28T15:49:26;5.35;;;2.50;;
27985;SDS011;15453;53.692;10.168;2023-02-28T15:51:54;4.95;;;2.15;;
27985;SDS011;15453;53.692;10.168;2023-02-28T15:54:23;3.17;;;1.90;;
27985;SDS011;15453;53.692;10.168;2023-02-28T15:56:52;3.33;;;2.17;;
27985;SDS011;15453;53.692;10.168;2023-02-28T15:59:21;5.00;;;2.63;;
27985;SDS011;15453;53.692;10.168;2023-02-28T16:02:01;3.33;;;1.90;;
27985;SDS011;15453;53.692;10.168;2023-02-28T16:07:53;6.75;;;2.40;;
27985;SDS011;15453;53.692;10.168;2023-02-28T16:10:20;3.63;;;2.20;;
27985;SDS011;15453;53.692;10.168;2023-02-28T16:12:50;4.65;;;2.70;;
27985;SDS011;15453;53.692;10.168;2023-02-28T16:15:19;4.47;;;2.55;;
27985;SDS011;15453;53.692;10.168;2023-02-28T16:17:46;7.53;;;2.90;;
27985;SDS011;15453;53.692;10.168;2023-02-28T16:20:16;3.45;;;2.17;;
27985;SDS011;15453;53.692;10.168;2023-02-28T16:22:43;5.85;;;2.47;;
27985;SDS011;15453;53.692;10.168;2023-02-28T16:25:12;7.65;;;3.05;;
27985;SDS011;15453;53.692;10.168;2023-02-28T16:27:39;4.25;;;2.38;;
27985;SDS011;15453;53.692;10.168;2023-02-28T16:30:05;7.57;;;2.45;;
27985;SDS011;15453;53.692;10.168;2023-02-28T16:32:32;6.00;;;2.70;;
27985;SDS011;15453;53.692;10.168;2023-02-28T16:35:00;4.63;;;2.45;;
27985;SDS011;15453;53.692;10.168;2023-02-28T16:37:26;4.35;;;2.15;;
27985;SDS011;15453;53.692;10.168;2023-02-28T16:39:51;4.53;;;2.83;;
27985;SDS011;15453;53.692;10.168;2023-02-28T16:42:27;5.65;;;3.15;;
27985;SDS011;15453;53.692;10.168;2023-02-28T16:44:53;4.82;;;3.08;;
27985;SDS011;15453;53.692;10.168;2023-02-28T16:47:19;4.07;;;2.70;;
27985;SDS011;15453;53.692;10.168;2023-02-28T16:49:45;5.05;;;2.70;;
27985;SDS011;15453;53.692;10.168;2023-02-28T16:52:12;4.45;;;2.80;;
27985;SDS011;15453;53.692;10.168;2023-02-28T16:54:38;3.60;;;2.55;;
27985;SDS011;15453;53.692;10.168;2023-02-28T16:57:04;6.80;;;2.40;;
27985;SDS011;15453;53.692;10.168;2023-02-28T16:59:31;4.75;;;2.20;;
27985;SDS011;15453;53.692;10.168;2023-02-28T17:01:57;7.18;;;2.42;;
27985;SDS011;15453;53.692;10.168;2023-02-28T17:04:23;3.55;;;1.90;;
27985;SDS011;15453;53.692;10.168;2023-02-28T17:06:51;4.32;;;2.00;;